Observation data for Saint Lawrence on 04/16/2018      Previous  Date  Next       Current Mesonet Observations  Soil Data  Daily Summary Page  Observations in Plain Language
KST1 160505Z 12012KT 13/M09 A3017 RMK A01 T01331091  RH  020%=      5-min Rain = 0
KST1 160510Z 12012KT 13/M09 A3016 RMK A01 T01321091  RH  021%=      5-min Rain = 0
KST1 160515Z 12012KT 13/M09 A3016 RMK A01 T01321090  RH  021%=      5-min Rain = 0
KST1 160520Z 12013KT 13/M09 A3016 RMK A01 T01331089  RH  021%=      5-min Rain = 0
KST1 160525Z 12013KT 13/M09 A3016 RMK A01 T01331089  RH  021%=      5-min Rain = 0
KST1 160530Z 12013KT 13/M09 A3016 RMK A01 T01331088  RH  021%=      5-min Rain = 0
KST1 160535Z 12013KT 13/M09 A3016 RMK A01 T01321089  RH  021%=      5-min Rain = 0
KST1 160540Z 12014KT 13/M09 A3016 RMK A01 T01321089  RH  021%=      5-min Rain = 0
KST1 160545Z 12014KT 13/M09 A3016 RMK A01 T01321088  RH  021%=      5-min Rain = 0
KST1 160550Z 12013KT 13/M09 A3016 RMK A01 T01311089  RH  021%=      5-min Rain = 0
KST1 160555Z 12013KT 13/M09 A3016 RMK A01 T01301089  RH  021%=      5-min Rain = 0
KST1 160600Z 13013KT 13/M09 A3015 RMK A01 T01291089  RH  021%=      5-min Rain = 0
KST1 160605Z 13012KT 13/M09 A3015 RMK A01 T01271089  RH  022%=      5-min Rain = 0
KST1 160610Z 12011KT 12/M09 A3015 RMK A01 T01241089  RH  022%=      5-min Rain = 0
KST1 160615Z 12011KT 12/M09 A3015 RMK A01 T01231090  RH  022%=      5-min Rain = 0
KST1 160620Z 12012KT 12/M09 A3015 RMK A01 T01221089  RH  022%=      5-min Rain = 0
KST1 160625Z 12011KT 12/M09 A3015 RMK A01 T01221089  RH  022%=      5-min Rain = 0
KST1 160630Z 12012KT 12/M09 A3015 RMK A01 T01231088  RH  022%=      5-min Rain = 0
KST1 160635Z 12013KT 12/M09 A3015 RMK A01 T01231088  RH  022%=      5-min Rain = 0
KST1 160640Z 12013KT 12/M09 A3015 RMK A01 T01231088  RH  022%=      5-min Rain = 0
KST1 160645Z 12012KT 12/M09 A3015 RMK A01 T01211089  RH  023%=      5-min Rain = 0
KST1 160650Z 12011KT 12/M09 A3015 RMK A01 T01181089  RH  023%=      5-min Rain = 0
KST1 160655Z 12012KT 12/M09 A3015 RMK A01 T01171089  RH  023%=      5-min Rain = 0
KST1 160700Z 12012KT 12/M09 A3015 RMK A01 T01171088  RH  023%=      5-min Rain = 0
KST1 160705Z 12012KT 12/M09 A3014 RMK A01 T01161089  RH  023%=      5-min Rain = 0
KST1 160710Z 12011KT 12/M09 A3014 RMK A01 T01161088  RH  023%=      5-min Rain = 0
KST1 160715Z 12012KT 12/M09 A3014 RMK A01 T01161088  RH  023%=      5-min Rain = 0
KST1 160720Z 12012KT 12/M09 A3014 RMK A01 T01161087  RH  023%=      5-min Rain = 0
KST1 160725Z 12012KT 12/M09 A3014 RMK A01 T01161087  RH  023%=      5-min Rain = 0
KST1 160730Z 12012KT 12/M09 A3014 RMK A01 T01151087  RH  024%=      5-min Rain = 0
KST1 160735Z 12012KT 12/M09 A3014 RMK A01 T01151087  RH  024%=      5-min Rain = 0
KST1 160740Z 12012KT 12/M09 A3014 RMK A01 T01151087  RH  024%=      5-min Rain = 0
KST1 160745Z 12012KT 11/M09 A3013 RMK A01 T01121087  RH  024%=      5-min Rain = 0
KST1 160750Z 12012KT 11/M09 A3013 RMK A01 T01111086  RH  024%=      5-min Rain = 0
KST1 160755Z 12012KT 11/M09 A3014 RMK A01 T01111086  RH  025%=      5-min Rain = 0
KST1 160800Z 12011KT 11/M09 A3014 RMK A01 T01081086  RH  025%=      5-min Rain = 0
KST1 160805Z 13011KT 11/M09 A3014 RMK A01 T01071086  RH  025%=      5-min Rain = 0
KST1 160810Z 13011KT 11/M09 A3014 RMK A01 T01061086  RH  025%=      5-min Rain = 0
KST1 160815Z 13011KT 11/M09 A3014 RMK A01 T01071085  RH  025%=      5-min Rain = 0
KST1 160820Z 13011KT 11/M09 A3014 RMK A01 T01061085  RH  026%=      5-min Rain = 0
KST1 160825Z 13011KT 10/M09 A3014 RMK A01 T01041085  RH  026%=      5-min Rain = 0
KST1 160830Z 13010KT 10/M09 A3014 RMK A01 T01031086  RH  026%=      5-min Rain = 0
KST1 160835Z 13009KT 10/M09 A3014 RMK A01 T01001087  RH  026%=      5-min Rain = 0
KST1 160840Z 13009KT 10/M09 A3014 RMK A01 T00981087  RH  027%=      5-min Rain = 0
KST1 160845Z 13008KT 09/M09 A3014 RMK A01 T00941088  RH  027%=      5-min Rain = 0
KST1 160850Z 13008KT 09/M09 A3014 RMK A01 T00911090  RH  027%=      5-min Rain = 0
KST1 160855Z 13008KT 09/M09 A3013 RMK A01 T00881091  RH  028%=      5-min Rain = 0
KST1 160900Z 13007KT 09/M09 A3013 RMK A01 T00851092  RH  028%=      5-min Rain = 0
KST1 160905Z 13007KT 08/M09 A3013 RMK A01 T00831092  RH  028%=      5-min Rain = 0
KST1 160910Z 12008KT 09/M09 A3014 RMK A01 T00851089  RH  029%=      5-min Rain = 0
KST1 160915Z 12009KT 09/M09 A3013 RMK A01 T00881086  RH  029%=      5-min Rain = 0
KST1 160920Z 12010KT 09/M08 A3013 RMK A01 T00881084  RH  029%=      5-min Rain = 0
KST1 160925Z 12009KT 09/M08 A3013 RMK A01 T00891084  RH  029%=      5-min Rain = 0
KST1 160930Z 12009KT 09/M08 A3013 RMK A01 T00881083  RH  029%=      5-min Rain = 0
KST1 160935Z 12008KT 09/M09 A3013 RMK A01 T00851085  RH  029%=      5-min Rain = 0
KST1 160940Z 13008KT 08/M09 A3013 RMK A01 T00831085  RH  030%=      5-min Rain = 0
KST1 160945Z 13008KT 08/M08 A3013 RMK A01 T00821084  RH  030%=      5-min Rain = 0
KST1 160950Z 13008KT 08/M08 A3013 RMK A01 T00811084  RH  030%=      5-min Rain = 0
KST1 160955Z 13008KT 08/M08 A3013 RMK A01 T00801083  RH  031%=      5-min Rain = 0
KST1 161000Z 12007KT 08/M08 A3013 RMK A01 T00791083  RH  031%=      5-min Rain = 0
KST1 161005Z 12009KT 08/M08 A3013 RMK A01 T00801080  RH  032%=      5-min Rain = 0
KST1 161010Z 12009KT 08/M08 A3013 RMK A01 T00831077  RH  032%=      5-min Rain = 0
KST1 161015Z 13009KT 08/M08 A3012 RMK A01 T00801078  RH  032%=      5-min Rain = 0
KST1 161020Z 12011KT 08/M07 A3012 RMK A01 T00821074  RH  033%=      5-min Rain = 0
KST1 161025Z 12010KT 08/M07 A3012 RMK A01 T00831073  RH  033%=      5-min Rain = 0
KST1 161030Z 13010KT 08/M07 A3012 RMK A01 T00831072  RH  033%=      5-min Rain = 0
KST1 161035Z 12010KT 08/M07 A3012 RMK A01 T00831071  RH  033%=      5-min Rain = 0
KST1 161040Z 13010KT 08/M07 A3012 RMK A01 T00811071  RH  034%=      5-min Rain = 0
KST1 161045Z 13010KT 08/M07 A3012 RMK A01 T00801071  RH  034%=      5-min Rain = 0
KST1 161050Z 13010KT 08/M07 A3012 RMK A01 T00781071  RH  034%=      5-min Rain = 0
KST1 161055Z 13010KT 08/M07 A3012 RMK A01 T00771070  RH  035%=      5-min Rain = 0
KST1 161100Z 14010KT 08/M07 A3012 RMK A01 T00781069  RH  035%=      5-min Rain = 0
KST1 161105Z 14011KT 08/M07 A3012 RMK A01 T00801065  RH  035%=      5-min Rain = 0
KST1 161110Z 14011KT 08/M06 A3011 RMK A01 T00821063  RH  036%=      5-min Rain = 0
KST1 161115Z 14011KT 08/M06 A3011 RMK A01 T00821062  RH  036%=      5-min Rain = 0
KST1 161120Z 14010KT 08/M06 A3011 RMK A01 T00811062  RH  036%=      5-min Rain = 0
KST1 161125Z 14010KT 08/M06 A3011 RMK A01 T00791062  RH  037%=      5-min Rain = 0
KST1 161130Z 14010KT 08/M06 A3011 RMK A01 T00781062  RH  037%=      5-min Rain = 0
KST1 161135Z 14010KT 08/M06 A3011 RMK A01 T00761063  RH  037%=      5-min Rain = 0
KST1 161140Z 14010KT 08/M06 A3011 RMK A01 T00751062  RH  038%=      5-min Rain = 0
KST1 161145Z 14010KT 08/M06 A3011 RMK A01 T00751061  RH  038%=      5-min Rain = 0
KST1 161150Z 14010KT 07/M06 A3011 RMK A01 T00741061  RH  038%=      5-min Rain = 0
KST1 161155Z 14010KT 07/M06 A3011 RMK A01 T00731060  RH  039%=      5-min Rain = 0
KST1 161200Z 14010KT 07/M06 A3011 RMK A01 T00731059  RH  039%=      5-min Rain = 0
KST1 161205Z 14010KT 07/M06 A3011 RMK A01 T00731058  RH  039%=      5-min Rain = 0
KST1 161210Z 14010KT 07/M06 A3011 RMK A01 T00731058  RH  039%=      5-min Rain = 0
KST1 161215Z 14009KT 07/M06 A3011 RMK A01 T00711058  RH  040%=      5-min Rain = 0
KST1 161220Z 14008KT 07/M06 A3012 RMK A01 T00691059  RH  040%=      5-min Rain = 0
KST1 161225Z 14008KT 07/M06 A3012 RMK A01 T00671061  RH  040%=      5-min Rain = 0
KST1 161230Z 14007KT 07/M06 A3012 RMK A01 T00651063  RH  040%=      5-min Rain = 0
KST1 161235Z 14008KT 06/M07 A3012 RMK A01 T00631065  RH  040%=      5-min Rain = 0
KST1 161240Z 14008KT 06/M06 A3012 RMK A01 T00641063  RH  040%=      5-min Rain = 0
KST1 161245Z 14009KT 07/M06 A3012 RMK A01 T00691059  RH  040%=      5-min Rain = 0
KST1 161250Z 15008KT 07/M06 A3012 RMK A01 T00731057  RH  040%=      5-min Rain = 0
KST1 161255Z 15008KT 08/M05 A3012 RMK A01 T00781053  RH  039%=      5-min Rain = 0
KST1 161300Z 15008KT 08/M05 A3013 RMK A01 T00821051  RH  039%=      5-min Rain = 0
KST1 161305Z 15008KT 09/M05 A3013 RMK A01 T00891045  RH  039%=      5-min Rain = 0
KST1 161310Z 15009KT 10/M04 A3013 RMK A01 T01001035  RH  039%=      5-min Rain = 0
KST1 161315Z 15009KT 11/M03 A3013 RMK A01 T01071029  RH  039%=      5-min Rain = 0
KST1 161320Z 16010KT 11/M03 A3013 RMK A01 T01131026  RH  038%=      5-min Rain = 0
KST1 161325Z 15010KT 12/M02 A3013 RMK A01 T01181023  RH  038%=      5-min Rain = 0
KST1 161330Z 16010KT 12/M02 A3013 RMK A01 T01221021  RH  037%=      5-min Rain = 0
KST1 161335Z 16010KT 13/M02 A3013 RMK A01 T01251019  RH  037%=      5-min Rain = 0
KST1 161340Z 16011KT 13/M02 A3014 RMK A01 T01301017  RH  037%=      5-min Rain = 0
KST1 161345Z 16011KT 13/M02 A3014 RMK A01 T01341015  RH  036%=      5-min Rain = 0
KST1 161350Z 16012KT 14/M01 A3014 RMK A01 T01371013  RH  036%=      5-min Rain = 0
KST1 161355Z 16013KT 14/M01 A3014 RMK A01 T01431011  RH  035%=      5-min Rain = 0
KST1 161400Z 17014KT 15/M01 A3014 RMK A01 T01501008  RH  034%=      5-min Rain = 0
KST1 161405Z 17016KT 16/M01 A3014 RMK A01 T01561007  RH  033%=      5-min Rain = 0
KST1 161410Z 17017G22KT 16/M01 A3014 RMK A01 T01601006  RH  032%=      5-min Rain = 0
KST1 161415Z 17017G22KT 17/M01 A3014 RMK A01 T01651006  RH  031%=      5-min Rain = 0
KST1 161420Z 17019KT 17/M01 A3014 RMK A01 T01671006  RH  031%=      5-min Rain = 0
KST1 161425Z 17017G22KT 17/M01 A3014 RMK A01 T01701006  RH  031%=      5-min Rain = 0
KST1 161430Z 18017G22KT 17/M01 A3013 RMK A01 T01721006  RH  030%=      5-min Rain = 0
KST1 161435Z 17016KT 18/M01 A3013 RMK A01 T01751006  RH  030%=      5-min Rain = 0
KST1 161440Z 17016KT 18/M01 A3013 RMK A01 T01801006  RH  029%=      5-min Rain = 0
KST1 161445Z 17015KT 18/M01 A3013 RMK A01 T01811006  RH  028%=      5-min Rain = 0
KST1 161450Z 17016KT 18/M01 A3013 RMK A01 T01841007  RH  028%=      5-min Rain = 0
KST1 161455Z 18015KT 19/M01 A3013 RMK A01 T01891008  RH  027%=      5-min Rain = 0
KST1 161500Z 17016KT 20/M01 A3013 RMK A01 T01951009  RH  026%=      5-min Rain = 0
KST1 161505Z 17017KT 20/M01 A3013 RMK A01 T01961011  RH  025%=      5-min Rain = 0
KST1 161510Z 18017G22KT 20/M01 A3013 RMK A01 T02001011  RH  024%=      5-min Rain = 0
KST1 161515Z 18019G24KT 21/M01 A3013 RMK A01 T02051014  RH  023%=      5-min Rain = 0
KST1 161520Z 18017G24KT 21/M01 A3013 RMK A01 T02081014  RH  023%=      5-min Rain = 0
KST1 161525Z 18019KT 21/M02 A3012 RMK A01 T02101019  RH  022%=      5-min Rain = 0
KST1 161530Z 18019G25KT 22/M02 A3012 RMK A01 T02151018  RH  021%=      5-min Rain = 0
KST1 161535Z 18019G24KT 22/M02 A3012 RMK A01 T02181018  RH  021%=      5-min Rain = 0
KST1 161540Z 17019G24KT 22/M02 A3012 RMK A01 T02191018  RH  021%=      5-min Rain = 0
KST1 161545Z 17022KT 22/M02 A3012 RMK A01 T02211021  RH  020%=      5-min Rain = 0
KST1 161550Z 17020KT 22/M02 A3013 RMK A01 T02241021  RH  020%=      5-min Rain = 0
KST1 161555Z 18021KT 23/M02 A3012 RMK A01 T02261021  RH  019%=      5-min Rain = 0
KST1 161600Z 18020KT 23/M02 A3012 RMK A01 T02301020  RH  019%=      5-min Rain = 0
KST1 161605Z 18021G26KT 24/M03 A3012 RMK A01 T02351025  RH  018%=      5-min Rain = 0
KST1 161610Z 18020G28KT 24/M03 A3012 RMK A01 T02401030  RH  017%=      5-min Rain = 0
KST1 161615Z 18024G30KT 24/M04 A3012 RMK A01 T02431036  RH  016%=      5-min Rain = 0
KST1 161620Z 18024G29KT 24/M04 A3012 RMK A01 T02421038  RH  016%=      5-min Rain = 0
KST1 161625Z 18024G30KT 24/M04 A3012 RMK A01 T02431038  RH  015%=      5-min Rain = 0
KST1 161630Z 18024G29KT 24/M04 A3012 RMK A01 T02441037  RH  015%=      5-min Rain = 0
KST1 161635Z 18023G28KT 25/M04 A3012 RMK A01 T02471035  RH  015%=      5-min Rain = 0
KST1 161640Z 18023G28KT 25/M04 A3012 RMK A01 T02481037  RH  015%=      5-min Rain = 0
KST1 161645Z 19022G28KT 25/M03 A3012 RMK A01 T02461034  RH  016%=      5-min Rain = 0
KST1 161650Z 19021G27KT 25/M03 A3012 RMK A01 T02491033  RH  015%=      5-min Rain = 0
KST1 161655Z 18023G30KT 25/M03 A3012 RMK A01 T02521033  RH  015%=      5-min Rain = 0
KST1 161700Z 18023G29KT 26/M04 A3012 RMK A01 T02551035  RH  015%=      5-min Rain = 0
KST1 161705Z 18022G28KT 26/M04 A3011 RMK A01 T02571037  RH  014%=      5-min Rain = 0
KST1 161710Z 18024G31KT 26/M04 A3011 RMK A01 T02601042  RH  013%=      5-min Rain = 0
KST1 161715Z 19023G29KT 26/M05 A3011 RMK A01 T02611047  RH  013%=      5-min Rain = 0
KST1 161720Z 19022G30KT 26/M05 A3011 RMK A01 T02601046  RH  013%=      5-min Rain = 0
KST1 161725Z 19023G28KT 26/M05 A3011 RMK A01 T02611048  RH  013%=      5-min Rain = 0
KST1 161730Z 19022G31KT 26/M05 A301 RMK A01 T02631052  RH  012%=      5-min Rain = 0
KST1 161735Z 18021G28KT 26/M05 A301 RMK A01 T02641047  RH  013%=      5-min Rain = 0
KST1 161740Z 18021G26KT 27/M05 A301 RMK A01 T02691049  RH  012%=      5-min Rain = 0
KST1 161745Z 18020G28KT 28/M05 A301 RMK A01 T02751048  RH  012%=      5-min Rain = 0
KST1 161750Z 19021G27KT 27/M05 A3009 RMK A01 T02731052  RH  012%=      5-min Rain = 0
KST1 161755Z 18022KT 27/M05 A3009 RMK A01 T02731053  RH  012%=      5-min Rain = 0
KST1 161800Z 17021G29KT 28/M05 A3009 RMK A01 T02761048  RH  012%=      5-min Rain = 0
KST1 161805Z 17022G28KT 28/M05 A3008 RMK A01 T02761051  RH  012%=      5-min Rain = 0
KST1 161810Z 18021G27KT 28/M05 A3008 RMK A01 T02771050  RH  011%=      5-min Rain = 0
KST1 161815Z 18020G25KT 28/M05 A3008 RMK A01 T02811049  RH  011%=      5-min Rain = 0
KST1 161820Z 18020G26KT 28/M05 A3008 RMK A01 T02831049  RH  011%=      5-min Rain = 0
KST1 161825Z 19021G26KT 28/M06 A3007 RMK A01 T02811056  RH  011%=      5-min Rain = 0
KST1 161830Z 18021G29KT 29/M05 A3007 RMK A01 T02851050  RH  011%=      5-min Rain = 0
KST1 161835Z 18021G26KT 28/M05 A3007 RMK A01 T02821054  RH  011%=      5-min Rain = 0
KST1 161840Z 17022G28KT 29/M05 A3006 RMK A01 T02901053  RH  010%=      5-min Rain = 0
KST1 161845Z 17022G28KT 29/M05 A3006 RMK A01 T02901054  RH  010%=      5-min Rain = 0
KST1 161850Z 17023G29KT 29/M05 A3006 RMK A01 T02891054  RH  010%=      5-min Rain = 0
KST1 161855Z 18024G31KT 29/M06 A3006 RMK A01 T02881061  RH  010%=      5-min Rain = 0
KST1 161900Z 17024G32KT 29/M06 A3005 RMK A01 T02871062  RH  010%=      5-min Rain = 0
KST1 161905Z 18024G31KT 29/M06 A3005 RMK A01 T02901057  RH  010%=      5-min Rain = 0
KST1 161910Z 18021G29KT 29/M06 A3005 RMK A01 T02921059  RH  010%=      5-min Rain = 0
KST1 161915Z 19022G30KT 29/M07 A3004 RMK A01 T02871066  RH  010%=      5-min Rain = 0
KST1 161920Z 18022G30KT 30/M06 A3004 RMK A01 T02961061  RH  009%=      5-min Rain = 0
KST1 161925Z 19022G30KT 29/M06 A3004 RMK A01 T02921064  RH  009%=      5-min Rain = 0
KST1 161930Z 18022G27KT 29/M06 A3004 RMK A01 T02921064  RH  009%=      5-min Rain = 0
KST1 161935Z 18022G29KT 30/M06 A3004 RMK A01 T02961059  RH  010%=      5-min Rain = 0
KST1 161940Z 18020G26KT 30/M06 A3003 RMK A01 T02991060  RH  009%=      5-min Rain = 0
KST1 161945Z 18023G31KT 30/M07 A3003 RMK A01 T02971066  RH  009%=      5-min Rain = 0
KST1 161950Z 18020G28KT 30/M06 A3003 RMK A01 T02971063  RH  009%=      5-min Rain = 0
KST1 161955Z 17023G28KT 30/M07 A3003 RMK A01 T02991066  RH  009%=      5-min Rain = 0
KST1 162000Z 18023G33KT 30/M07 A3003 RMK A01 T02991065  RH  009%=      5-min Rain = 0
KST1 162005Z 19021G28KT 30/M08 A3003 RMK A01 T02991082  RH  008%=      5-min Rain = 0
KST1 162010Z 17021G26KT 30/M07 A3002 RMK A01 T03031073  RH  008%=      5-min Rain = 0
KST1 162015Z 18022G27KT 30/M07 A3002 RMK A01 T03031070  RH  008%=      5-min Rain = 0
KST1 162020Z 18023G29KT 30/M08 A3002 RMK A01 T03011079  RH  008%=      5-min Rain = 0
KST1 162025Z 18020G26KT 30/M08 A3002 RMK A01 T03021078  RH  008%=      5-min Rain = 0
KST1 162030Z 18021G29KT 31/M08 A3001 RMK A01 T03051078  RH  008%=      5-min Rain = 0
KST1 162035Z 18019G27KT 30/M08 A3001 RMK A01 T03041081  RH  008%=      5-min Rain = 0
KST1 162040Z 19018G24KT 31/M09 A30 RMK A01 T03061094  RH  007%=      5-min Rain = 0
KST1 162045Z 19021G28KT 31/M10 A30 RMK A01 T03061098  RH  007%=      5-min Rain = 0
KST1 162050Z 18018G25KT 31/M09 A30 RMK A01 T03091089  RH  007%=      5-min Rain = 0
KST1 162055Z 19020G28KT 31/M11 A2999 RMK A01 T03051110  RH  006%=      5-min Rain = 0
KST1 162100Z 19020G27KT 31/M10 A2999 RMK A01 T03051103  RH  007%=      5-min Rain = 0
KST1 162105Z 18019G25KT 31/M10 A2999 RMK A01 T03081096  RH  007%=      5-min Rain = 0
KST1 162110Z 18020G29KT 31/M10 A2998 RMK A01 T03091097  RH  007%=      5-min Rain = 0
KST1 162115Z 19020G25KT 31/M11 A2998 RMK A01 T03111113  RH  006%=      5-min Rain = 0
KST1 162120Z 19016G27KT 31/M11 A2998 RMK A01 T03101107  RH  006%=      5-min Rain = 0
KST1 162125Z 19019G27KT 31/M10 A2997 RMK A01 T03071101  RH  006%=      5-min Rain = 0
KST1 162130Z 17021G27KT 31/M10 A2997 RMK A01 T03111097  RH  007%=      5-min Rain = 0
KST1 162135Z 18020G27KT 31/M10 A2997 RMK A01 T03071100  RH  007%=      5-min Rain = 0
KST1 162140Z 19021G28KT 31/M11 A2996 RMK A01 T03081108  RH  006%=      5-min Rain = 0
KST1 162145Z 17021KT 31/M10 A2996 RMK A01 T03101096  RH  007%=      5-min Rain = 0
KST1 162150Z 18022G27KT 31/M10 A2996 RMK A01 T03101103  RH  006%=      5-min Rain = 0
KST1 162155Z 19019G26KT 31/M11 A2996 RMK A01 T03081113  RH  006%=      5-min Rain = 0
KST1 162200Z 19019G25KT 31/M11 A2995 RMK A01 T03101109  RH  006%=      5-min Rain = 0
KST1 162205Z 20020G27KT 31/M11 A2995 RMK A01 T03051114  RH  006%=      5-min Rain = 0
KST1 162210Z 18021G28KT 31/M11 A2995 RMK A01 T03081106  RH  006%=      5-min Rain = 0
KST1 162215Z 18020G26KT 31/M10 A2995 RMK A01 T03091103  RH  006%=      5-min Rain = 0
KST1 162220Z 19019G27KT 31/M10 A2995 RMK A01 T03071100  RH  007%=      5-min Rain = 0
KST1 162225Z 17023G30KT 30/M11 A2995 RMK A01 T03031105  RH  006%=      5-min Rain = 0
KST1 162230Z 17021G26KT 30/M10 A2995 RMK A01 T03021104  RH  007%=      5-min Rain = 0
KST1 162235Z 18018G24KT 30/M10 A2994 RMK A01 T03041104  RH  007%=      5-min Rain = 0
KST1 162240Z 19018G25KT 30/M11 A2994 RMK A01 T03011111  RH  006%=      5-min Rain = 0
KST1 162245Z 18021G27KT 31/M11 A2994 RMK A01 T03051107  RH  006%=      5-min Rain = 0
KST1 162250Z 18021G27KT 31/M11 A2994 RMK A01 T03071105  RH  006%=      5-min Rain = 0
KST1 162255Z 17019G25KT 31/M10 A2994 RMK A01 T03081101  RH  006%=      5-min Rain = 0
KST1 162300Z 18019G24KT 31/M10 A2994 RMK A01 T03091101  RH  006%=      5-min Rain = 0
KST1 162305Z 17020G25KT 31/M10 A2994 RMK A01 T03081100  RH  007%=      5-min Rain = 0
KST1 162310Z 18021G28KT 31/M10 A2994 RMK A01 T03071102  RH  006%=      5-min Rain = 0
KST1 162315Z 17021G26KT 30/M10 A2994 RMK A01 T03041097  RH  007%=      5-min Rain = 0
KST1 162320Z 18020KT 30/M10 A2993 RMK A01 T03041101  RH  007%=      5-min Rain = 0
KST1 162325Z 18021G26KT 30/M10 A2993 RMK A01 T03041098  RH  007%=      5-min Rain = 0
KST1 162330Z 18021KT 30/M10 A2993 RMK A01 T03031096  RH  007%=      5-min Rain = 0
KST1 162335Z 18022G28KT 30/M09 A2993 RMK A01 T03011094  RH  007%=      5-min Rain = 0
KST1 162340Z 18022KT 30/M09 A2993 RMK A01 T02991089  RH  008%=      5-min Rain = 0
KST1 162345Z 17021G27KT 30/M08 A2993 RMK A01 T02981082  RH  008%=      5-min Rain = 0
KST1 162350Z 16021G26KT 30/M08 A2993 RMK A01 T02981078  RH  008%=      5-min Rain = 0
KST1 162355Z 16022G29KT 30/M08 A2993 RMK A01 T02991077  RH  008%=      5-min Rain = 0
KST1 170000Z 17023G29KT 30/M08 A2993 RMK A01 T02951077  RH  008%=      5-min Rain = 0
KST1 170005Z 17020G25KT 29/M07 A2993 RMK A01 T02941074  RH  009%=      5-min Rain = 0
KST1 170010Z 17020G25KT 29/M07 A2993 RMK A01 T02931072  RH  009%=      5-min Rain = 0
KST1 170015Z 17021G27KT 29/M07 A2993 RMK A01 T02901070  RH  009%=      5-min Rain = 0
KST1 170020Z 17020G25KT 29/M07 A2993 RMK A01 T02871065  RH  010%=      5-min Rain = 0
KST1 170025Z 17021KT 28/M07 A2993 RMK A01 T02831066  RH  010%=      5-min Rain = 0
KST1 170030Z 16021G27KT 28/M06 A2993 RMK A01 T02791063  RH  010%=      5-min Rain = 0
KST1 170035Z 17020G26KT 28/M06 A2993 RMK A01 T02771064  RH  010%=      5-min Rain = 0
KST1 170040Z 17018KT 28/M06 A2993 RMK A01 T02751064  RH  011%=      5-min Rain = 0
KST1 170045Z 17019G26KT 27/M06 A2993 RMK A01 T02721062  RH  011%=      5-min Rain = 0
KST1 170050Z 17018G23KT 27/M06 A2993 RMK A01 T02701060  RH  011%=      5-min Rain = 0
KST1 170055Z 17018G23KT 27/M06 A2993 RMK A01 T02671059  RH  011%=      5-min Rain = 0
KST1 170100Z 17019G24KT 27/M06 A2994 RMK A01 T02661056  RH  012%=      5-min Rain = 0
KST1 170105Z 17019KT 26/M06 A2994 RMK A01 T02641055  RH  012%=      5-min Rain = 0
KST1 170110Z 17018G23KT 26/M06 A2994 RMK A01 T02621056  RH  012%=      5-min Rain = 0
KST1 170115Z 17019KT 26/M06 A2994 RMK A01 T02601056  RH  012%=      5-min Rain = 0
KST1 170120Z 17019G24KT 26/M05 A2994 RMK A01 T02591054  RH  012%=      5-min Rain = 0
KST1 170125Z 17015KT 25/M06 A2994 RMK A01 T02541055  RH  013%=      5-min Rain = 0
KST1 170130Z 16016KT 25/M05 A2994 RMK A01 T02521053  RH  013%=      5-min Rain = 0
KST1 170135Z 16015G21KT 25/M05 A2995 RMK A01 T02491050  RH  014%=      5-min Rain = 0
KST1 170140Z 16017G22KT 25/M05 A2995 RMK A01 T02491049  RH  014%=      5-min Rain = 0
KST1 170145Z 16017KT 25/M05 A2995 RMK A01 T02481049  RH  014%=      5-min Rain = 0
KST1 170150Z 17017KT 25/M05 A2995 RMK A01 T02471049  RH  014%=      5-min Rain = 0
KST1 170155Z 17016G22KT 25/M05 A2995 RMK A01 T02451048  RH  014%=      5-min Rain = 0
KST1 170200Z 17017KT 24/M05 A2995 RMK A01 T02441046  RH  014%=      5-min Rain = 0
KST1 170205Z 17016KT 24/M05 A2995 RMK A01 T02421045  RH  015%=      5-min Rain = 0
KST1 170210Z 17016KT 24/M04 A2995 RMK A01 T02401044  RH  015%=      5-min Rain = 0
KST1 170215Z 17015KT 24/M04 A2995 RMK A01 T02391044  RH  015%=      5-min Rain = 0
KST1 170220Z 17015KT 24/M04 A2995 RMK A01 T02351043  RH  016%=      5-min Rain = 0
KST1 170225Z 17015KT 23/M04 A2995 RMK A01 T02341041  RH  016%=      5-min Rain = 0
KST1 170230Z 17015KT 23/M04 A2995 RMK A01 T02341040  RH  016%=      5-min Rain = 0
KST1 170235Z 17014KT 23/M04 A2995 RMK A01 T02321039  RH  016%=      5-min Rain = 0
KST1 170240Z 17013KT 23/M04 A2995 RMK A01 T02301039  RH  017%=      5-min Rain = 0
KST1 170245Z 17013KT 23/M04 A2995 RMK A01 T02281039  RH  017%=      5-min Rain = 0
KST1 170250Z 16012KT 22/M04 A2996 RMK A01 T02241039  RH  017%=      5-min Rain = 0
KST1 170255Z 16011KT 22/M04 A2996 RMK A01 T02201039  RH  017%=      5-min Rain = 0
KST1 170300Z 16011KT 22/M04 A2996 RMK A01 T02191038  RH  018%=      5-min Rain = 0
KST1 170305Z 16012KT 22/M04 A2996 RMK A01 T02201035  RH  018%=      5-min Rain = 0
KST1 170310Z 16013KT 22/M03 A2996 RMK A01 T02201033  RH  018%=      5-min Rain = 0
KST1 170315Z 17012KT 22/M03 A2996 RMK A01 T02201031  RH  019%=      5-min Rain = 0
KST1 170320Z 17012KT 22/M03 A2996 RMK A01 T02191030  RH  019%=      5-min Rain = 0
KST1 170325Z 17012KT 22/M03 A2996 RMK A01 T02181028  RH  019%=      5-min Rain = 0
KST1 170330Z 17012G17KT 22/M03 A2996 RMK A01 T02181027  RH  019%=      5-min Rain = 0
KST1 170335Z 17012KT 22/M03 A2996 RMK A01 T02171026  RH  020%=      5-min Rain = 0
KST1 170340Z 17013KT 22/M03 A2996 RMK A01 T02181025  RH  020%=      5-min Rain = 0
KST1 170345Z 17014KT 22/M02 A2996 RMK A01 T02191023  RH  020%=      5-min Rain = 0
KST1 170350Z 17014G19KT 22/M02 A2996 RMK A01 T02191022  RH  020%=      5-min Rain = 0
KST1 170355Z 17015KT 22/M02 A2996 RMK A01 T02191021  RH  020%=      5-min Rain = 0
KST1 170400Z 17014KT 22/M02 A2996 RMK A01 T02171021  RH  020%=      5-min Rain = 0
KST1 170405Z 17015G20KT 22/M02 A2996 RMK A01 T02171021  RH  020%=      5-min Rain = 0
KST1 170410Z 17016G21KT 22/M02 A2996 RMK A01 T02171021  RH  020%=      5-min Rain = 0
KST1 170415Z 17016G24KT 22/M02 A2996 RMK A01 T02161021  RH  020%=      5-min Rain = 0
KST1 170420Z 18018KT 22/M02 A2996 RMK A01 T02181021  RH  020%=      5-min Rain = 0
KST1 170425Z 18018G24KT 22/M02 A2996 RMK A01 T02171021  RH  020%=      5-min Rain = 0
KST1 170430Z 18018G23KT 22/M02 A2996 RMK A01 T02171021  RH  020%=      5-min Rain = 0
KST1 170435Z 18018G23KT 22/M02 A2996 RMK A01 T02161020  RH  021%=      5-min Rain = 0
KST1 170440Z 18018KT 22/M02 A2996 RMK A01 T02151020  RH  021%=      5-min Rain = 0
KST1 170445Z 18017G23KT 21/M02 A2996 RMK A01 T02141020  RH  021%=      5-min Rain = 0
KST1 170450Z 18016G21KT 21/M02 A2997 RMK A01 T02131020  RH  021%=      5-min Rain = 0
KST1 170455Z 18016G21KT 21/M02 A2997 RMK A01 T02121019  RH  021%=      5-min Rain = 0
KST1 170500Z 18017G22KT 21/M02 A2997 RMK A01 T02141018  RH  021%=      5-min Rain = 0

Page generated in 0.3372 seconds.